Colville, WA (99114)

11:38 AM PDT on September 02, 2015 (GMT -0700)
10th Avenue Colville | | Change Station
CLOSE
Current Station
Personal Weather Station
Location: Colville, WA
Elevation: 1952 ft
Nearby Weather Stations

Elev 1952 ft 48.55 °N, 117.90 °W | Updated 1 minute ago

Mostly Cloudy
Mostly Cloudy
74.1 °F
Feels Like 77 °F
N
0.0
Wind Variable Wind from North
Gusts 0.0 mph

Today
High -- | Low -- °F
--% Chance of Precip.
Yesterday
High -- | Low -- °F
Precip. -- in
6:09 AM 7:31 PM
Waning Gibbous, 78% visible
Pressure 29.83 in
Visibility 1.8 miles
Clouds Few 9000 ft
Heat Index 77 °F
Dew Point 42 °F
Humidity 31%
Rainfall 0.00 in
Snow Depth Not available.
UV 6 out of 12
Pollen 8.00 out of 12
Air Quality Not available.
Flu Activity Not available.
SPECI KDEW 021825Z AUTO 23015G20KT 1 3/4SM HZ FEW090 18/06 A2983 RMK AO2 T01830056
Pressure 29.83 in
Visibility 1.8 miles
Clouds Few 9000 ft
Heat Index 77 °F
Dew Point 42 °F
Humidity 31%
Rainfall 0.00 in
Snow Depth Not available.
UV 6 out of 12
Pollen 8.00 out of 12
Air Quality Not available.
Flu Activity Not available.
SPECI KDEW 021825Z AUTO 23015G20KT 1 3/4SM HZ FEW090 18/06 A2983 RMK AO2 T01830056

10-Day Weather Forecast

×

Almanac

Astronomy

Sep. 02, 2015 Rise Set
Actual Time
Civil Twilight
Nautical Twilight
Astronomical Twilight
Moon
Length of Visible Light
Length of Day
Tomorrow will be .
, % of the Moon is Illuminated

Today's Extremes

State Highs State Lows

Community

WunderPhotos

Upload Photos

1,851,793 photos uploaded!

WunderBlogs® & News

Nearby

Air Quality

  Air Quality AQ Index Pollutant
Not available.

Snow Depth

Station Depth Elevation

Earthquake Activity

City Distance Mag. Time & Date
Minimum magnitude displayed is 2.5.

Coastal Water Temperatures

Place Temperature

Stations

Nearby Weather Stations

Station Location Temp. Windchill Dew Point Humidity Wind Precip. Elev Updated Type